logo
Search for airport 
image banner adimage banner adimage banner ad
image banner ad

LKBA - Breclav

Located in Breclav, Czech Republic

ICAO - LKBA, IATA -

Data provided by Airmate  

General information

Coordinates: N48°47'27" E16°53'33"
Elevation is 525 feet MSL.
 
View others Airports in South Moravian Region

Operational data

Special qualification required
Current time UTC:
Current local time:
Weather at : LKTB - Brno/Turany ( 43 km )
METAR: LKTB 171830Z 34006KT 9999 BKN041 07/00 Q1007 NOSIG
TAF: TAF LKTB 171100Z 1712/1812 31008KT 9999 BKN040 TEMPO 1712/1719 36012KT 7000 -SHRA BKN025TCU TEMPO 1809/1812 7000 -SHRA BKN020TCU
View NOTAMs / SUP AIP / TFR affecting this airport [VIEW]
Communications frequencies: [VIEW]

Runways:

RWY identifierQFULength (ft)Width (ft)SurfaceLDA (ft)
082428197GRASS
262428197GRASS

Airport contact information

Address: Breclav Czech Republic

Other aviation service providers

Aviation club (not for profit)

Aeroklub Břeclav O.S.,

Aeroklub Břeclav O.S.,

Satellite view of LKBA